createdAt,value
2023-02-27T00:02:14.804Z,16.62
2023-02-27T00:07:17.915Z,16.48
2023-02-27T00:12:20.196Z,16.69
2023-02-27T00:17:22.354Z,16.63
2023-02-27T00:22:24.553Z,16.50
2023-02-27T00:27:26.698Z,16.50
2023-02-27T00:32:29.799Z,16.61
2023-02-27T00:37:32.102Z,16.57
2023-02-27T00:42:34.863Z,16.63
2023-02-27T00:47:37.165Z,16.54
2023-02-27T00:52:39.587Z,16.31
2023-02-27T00:57:41.922Z,16.40
2023-02-27T01:02:44.114Z,16.39
2023-02-27T01:07:46.347Z,16.46
2023-02-27T01:12:48.497Z,16.31
2023-02-27T01:17:50.657Z,16.10
2023-02-27T01:22:52.811Z,16.17
2023-02-27T01:27:54.940Z,15.93
2023-02-27T01:32:57.065Z,15.84
2023-02-27T01:37:59.312Z,15.70
2023-02-27T01:43:01.510Z,15.68
2023-02-27T01:48:17.238Z,15.79
2023-02-27T01:53:21.331Z,15.98
2023-02-27T01:58:23.955Z,15.92
2023-02-27T02:03:44.940Z,15.84
2023-02-27T02:08:49.575Z,15.94
2023-02-27T02:13:55.971Z,15.85
2023-02-27T02:19:34.701Z,15.85
2023-02-27T02:24:42.642Z,15.70
2023-02-27T02:30:15.688Z,15.48
2023-02-27T02:35:29.721Z,15.39
2023-02-27T02:40:37.353Z,15.45
2023-02-27T02:46:09.181Z,15.52
2023-02-27T02:51:42.334Z,15.28
2023-02-27T02:57:12.606Z,14.90
2023-02-27T03:02:23.676Z,14.72
2023-02-27T03:07:50.357Z,14.90
2023-02-27T03:13:07.096Z,14.68
2023-02-27T03:18:18.902Z,14.68
2023-02-27T03:23:30.724Z,14.50
2023-02-27T03:28:37.664Z,14.43
2023-02-27T03:33:51.014Z,14.18
2023-02-27T03:39:02.683Z,14.06
2023-02-27T03:44:12.052Z,14.22
2023-02-27T03:49:14.294Z,14.23
2023-02-27T03:54:31.288Z,14.35
2023-02-27T03:59:34.566Z,14.49
2023-02-27T04:04:36.842Z,14.64
2023-02-27T04:10:02.987Z,14.24
2023-02-27T04:15:33.781Z,14.47
2023-02-27T04:20:42.452Z,14.45
2023-02-27T04:26:11.029Z,14.20
2023-02-27T04:31:46.491Z,13.90
2023-02-27T04:36:56.231Z,13.97
2023-02-27T04:42:13.613Z,14.11
2023-02-27T04:47:18.518Z,14.24
2023-02-27T04:52:34.655Z,14.15
2023-02-27T04:58:04.898Z,14.07
2023-02-27T05:03:33.434Z,14.00
2023-02-27T05:08:57.914Z,14.22
2023-02-27T05:14:09.454Z,14.30
2023-02-27T05:19:11.737Z,14.28
2023-02-27T05:24:34.951Z,14.23
2023-02-27T05:29:43.444Z,14.14
2023-02-27T05:34:55.065Z,13.94
2023-02-27T05:39:59.249Z,14.09
2023-02-27T05:45:15.174Z,14.10
2023-02-27T05:50:21.982Z,14.00
2023-02-27T05:55:34.283Z,13.97
2023-02-27T06:00:43.557Z,13.99
2023-02-27T06:05:46.619Z,14.16
2023-02-27T06:10:50.270Z,14.19
2023-02-27T06:15:53.552Z,14.11
2023-02-27T06:20:55.698Z,14.35
2023-02-27T06:25:58.501Z,14.49
2023-02-27T06:31:00.641Z,14.58
2023-02-27T06:36:02.886Z,14.68
2023-02-27T06:41:05.208Z,14.54
2023-02-27T06:46:07.888Z,14.68
2023-02-27T06:51:10.046Z,14.87
2023-02-27T06:56:12.176Z,14.42
2023-02-27T07:01:14.960Z,14.84
2023-02-27T07:06:17.078Z,14.87
2023-02-27T07:11:19.489Z,14.98
2023-02-27T07:16:21.716Z,14.86
2023-02-27T07:21:23.959Z,15.10
2023-02-27T07:26:26.356Z,15.43
2023-02-27T07:31:29.138Z,15.62
2023-02-27T07:36:31.912Z,15.67
2023-02-27T07:41:34.029Z,15.74
2023-02-27T07:46:36.993Z,16.02
2023-02-27T07:51:39.544Z,16.15
2023-02-27T07:56:41.824Z,16.62
2023-02-27T08:01:43.918Z,16.82
2023-02-27T08:06:46.286Z,16.92
2023-02-27T08:11:49.234Z,17.01
2023-02-27T08:16:51.461Z,17.19
2023-02-27T08:21:53.614Z,17.31
2023-02-27T08:26:55.705Z,17.55
2023-02-27T08:31:58.037Z,17.63
2023-02-27T08:37:00.463Z,17.65
2023-02-27T08:42:02.647Z,18.00
2023-02-27T08:47:05.038Z,18.35
2023-02-27T08:52:09.604Z,18.48
2023-02-27T08:57:11.824Z,18.50
2023-02-27T09:02:14.219Z,18.70
2023-02-27T09:07:16.418Z,18.80
2023-02-27T09:12:18.570Z,18.97
2023-02-27T09:17:20.701Z,19.15
2023-02-27T09:22:22.969Z,19.33
2023-02-27T09:27:25.187Z,19.61
2023-02-27T09:32:28.277Z,19.88
2023-02-27T09:37:30.498Z,20.12
2023-02-27T09:42:42.454Z,20.14
2023-02-27T09:47:51.142Z,20.03
2023-02-27T09:52:53.333Z,20.06
2023-02-27T09:58:08.158Z,20.32
2023-02-27T10:03:10.305Z,20.57
2023-02-27T10:08:36.362Z,20.68
2023-02-27T10:13:53.361Z,20.93
2023-02-27T10:19:17.189Z,20.97
2023-02-27T10:24:29.759Z,21.11
2023-02-27T10:29:40.007Z,21.06
2023-02-27T10:34:44.458Z,21.36
2023-02-27T10:39:52.240Z,21.27
2023-02-27T10:44:54.790Z,21.50
2023-02-27T10:50:00.412Z,21.67
2023-02-27T10:55:19.781Z,21.52
2023-02-27T11:00:43.341Z,21.79
2023-02-27T11:05:54.241Z,21.53
2023-02-27T11:11:02.606Z,21.59
2023-02-27T11:16:22.147Z,21.93
2023-02-27T11:21:26.314Z,21.92
2023-02-27T11:26:56.287Z,22.21
2023-02-27T11:32:03.647Z,22.08
2023-02-27T11:37:19.053Z,22.10
2023-02-27T11:42:31.157Z,22.08
2023-02-27T11:47:37.294Z,22.26
2023-02-27T11:52:53.645Z,22.14
2023-02-27T11:58:15.548Z,22.14
2023-02-27T12:03:43.245Z,22.06
2023-02-27T12:08:59.228Z,22.32
2023-02-27T12:14:17.921Z,22.59
2023-02-27T12:19:38.088Z,22.91
2023-02-27T12:24:52.070Z,22.99
2023-02-27T12:30:22.896Z,23.07
2023-02-27T12:35:30.501Z,22.97
2023-02-27T12:40:39.889Z,23.35
2023-02-27T12:45:47.777Z,23.58
2023-02-27T12:51:04.800Z,23.74
2023-02-27T12:56:15.303Z,23.77
2023-02-27T13:01:49.983Z,23.79
2023-02-27T13:07:21.154Z,23.88
2023-02-27T13:12:43.633Z,23.92
2023-02-27T13:17:48.925Z,23.84
2023-02-27T13:23:17.629Z,23.48
2023-02-27T13:28:29.871Z,23.78
2023-02-27T13:33:42.102Z,23.91
2023-02-27T13:38:51.103Z,24.07
2023-02-27T13:43:58.538Z,24.47
2023-02-27T13:49:10.720Z,24.68
2023-02-27T13:54:16.862Z,24.77
2023-02-27T13:59:54.328Z,24.68
2023-02-27T14:04:58.898Z,24.34
2023-02-27T14:10:10.484Z,24.49
2023-02-27T14:15:22.135Z,24.84
2023-02-27T14:20:33.011Z,24.94
2023-02-27T14:26:05.756Z,24.93
2023-02-27T14:31:30.390Z,25.04
2023-02-27T14:36:40.014Z,24.96
2023-02-27T14:41:45.360Z,25.04
2023-02-27T14:46:47.718Z,25.12
2023-02-27T14:51:50.888Z,24.92
2023-02-27T14:57:06.130Z,24.94
2023-02-27T15:02:30.859Z,24.71
2023-02-27T15:07:34.867Z,24.77
2023-02-27T15:12:40.718Z,24.47
2023-02-27T15:17:46.465Z,24.41
2023-02-27T15:22:48.661Z,24.41
2023-02-27T15:27:50.897Z,24.18
2023-02-27T15:32:55.449Z,24.11
2023-02-27T15:38:00.299Z,23.88
2023-02-27T15:43:02.949Z,23.41
2023-02-27T15:48:05.753Z,23.18
2023-02-27T15:53:07.816Z,23.02
2023-02-27T15:58:30.820Z,22.82
2023-02-27T16:03:44.418Z,22.66
2023-02-27T16:08:57.064Z,22.09
2023-02-27T16:14:01.125Z,21.92
2023-02-27T16:19:31.493Z,21.68
2023-02-27T16:24:34.124Z,21.44
2023-02-27T16:29:40.553Z,21.24
2023-02-27T16:34:46.720Z,20.96
2023-02-27T16:39:52.580Z,21.03
2023-02-27T16:44:54.753Z,20.88
2023-02-27T16:49:56.894Z,20.81
2023-02-27T16:54:58.991Z,20.72
2023-02-27T17:00:01.175Z,20.67
2023-02-27T17:05:03.480Z,20.61
2023-02-27T17:10:06.285Z,20.63
2023-02-27T17:15:08.656Z,20.46
2023-02-27T17:20:12.158Z,20.42
2023-02-27T17:25:14.876Z,20.27
2023-02-27T17:30:18.012Z,20.22
2023-02-27T17:35:20.166Z,20.14
2023-02-27T17:40:22.374Z,20.17
2023-02-27T17:45:27.429Z,20.05
2023-02-27T17:50:32.432Z,19.96
2023-02-27T17:55:34.594Z,20.00
2023-02-27T18:00:37.001Z,19.87
2023-02-27T18:05:39.108Z,19.69
2023-02-27T18:10:41.386Z,19.44
2023-02-27T18:15:43.878Z,19.37
2023-02-27T18:20:46.250Z,19.22
2023-02-27T18:25:54.742Z,19.16
2023-02-27T18:30:57.177Z,18.98
2023-02-27T18:35:59.399Z,18.93
2023-02-27T18:41:03.291Z,18.72
2023-02-27T18:46:06.870Z,18.74
2023-02-27T18:51:12.633Z,18.69
2023-02-27T18:56:17.830Z,18.71
2023-02-27T19:01:23.210Z,18.64
2023-02-27T19:06:25.567Z,18.42
2023-02-27T19:11:33.703Z,18.48
2023-02-27T19:16:36.354Z,18.55
2023-02-27T19:21:38.834Z,18.54
2023-02-27T19:26:41.702Z,18.41
2023-02-27T19:31:44.891Z,18.37
2023-02-27T19:36:47.188Z,18.04
2023-02-27T19:41:49.367Z,18.12
2023-02-27T19:46:52.505Z,17.59
2023-02-27T19:51:54.919Z,17.31
2023-02-27T19:56:57.441Z,17.42
2023-02-27T20:02:00.590Z,17.47
2023-02-27T20:07:03.021Z,17.62
2023-02-27T20:12:05.651Z,17.37
2023-02-27T20:17:08.598Z,16.96
2023-02-27T20:22:13.838Z,16.92
2023-02-27T20:27:16.134Z,17.05
2023-02-27T20:32:18.477Z,17.10
2023-02-27T20:37:20.795Z,17.20
2023-02-27T20:42:23.003Z,17.18
2023-02-27T20:47:25.347Z,17.19
2023-02-27T20:52:27.700Z,17.12
2023-02-27T20:57:30.025Z,17.08
2023-02-27T21:02:32.148Z,16.97
2023-02-27T21:07:36.254Z,16.89
2023-02-27T21:12:38.512Z,16.85
2023-02-27T21:17:40.782Z,16.65
2023-02-27T21:22:43.057Z,16.55
2023-02-27T21:27:45.310Z,16.70
2023-02-27T21:32:47.444Z,16.78
2023-02-27T21:37:49.757Z,16.69
2023-02-27T21:42:53.248Z,16.24
2023-02-27T21:47:55.455Z,16.10
2023-02-27T21:52:57.554Z,16.13
2023-02-27T21:57:59.785Z,16.11
2023-02-27T22:03:02.418Z,16.01
2023-02-27T22:08:04.867Z,15.69
2023-02-27T22:13:07.016Z,15.45
2023-02-27T22:18:09.801Z,15.69
2023-02-27T22:23:12.403Z,15.74
2023-02-27T22:28:14.549Z,15.75
2023-02-27T22:33:16.651Z,15.49
2023-02-27T22:38:18.762Z,15.57
2023-02-27T22:43:20.874Z,15.44
2023-02-27T22:48:22.976Z,15.41
2023-02-27T22:53:25.501Z,15.46
2023-02-27T22:58:27.667Z,15.39
2023-02-27T23:03:30.309Z,15.28
2023-02-27T23:08:32.831Z,15.32
2023-02-27T23:13:35.094Z,15.25
2023-02-27T23:18:42.117Z,15.32
2023-02-27T23:23:45.113Z,15.05
2023-02-27T23:28:47.249Z,14.79
2023-02-27T23:33:49.478Z,15.14
2023-02-27T23:38:51.570Z,15.26
2023-02-27T23:44:12.899Z,15.35
2023-02-27T23:49:15.039Z,15.33
2023-02-27T23:54:17.254Z,15.18
2023-02-27T23:59:19.417Z,15.01
